Lodi, Arkansas
Current Conditions -  °F | °C
As of 1:53 AM on Monday 24 Nov 2014 (Local Time) from KMWT Reporting Station
Overcast Overcast  
Wind Chill: 45°   Ceiling: 2800
Heat Index: 49°   Visibility: 10mi
Dew Point: 39°   Wind: 10mph
Humidity: 69%   Direction: 320°NW
Pressure: 29.64"   Gusts: 23mph
Location:  34.3099°N, 93.5952°W
Report Text: KMWT 240753Z AUTO 32009G20KT 10SM OVC028 09/04 A2964 RMK AO2 PRESRR SLP034 T00940039
Loading
Personal Weather Stations






























Interactive Weather Map New forecast layout! Learn more

10-Day Weather Forecast

Advertisements
Track Severe Weather on mobile